Time;durP1;ratioP1;P1;durP2;ratioP2;P2;SDS_P1;SDS_P2;PMS_P1;PMS_P2;Temp;Humidity;BMP_temperature;BMP_pressure;BME280_temperature;BME280_humidity;BME280_pressure;Samples;Min_cycle;Max_cycle;Signal;HPM_P1;HPM_P2
2022/06/18 00:01:41;;;;;;;;;12.00;12.00;;;;;-147.17;100.00;-11206.22;5024800;28;51217;-70
2022/06/18 00:04:12;;;;;;;;;12.67;11.67;;;;;-147.17;100.00;-10958.19;5025492;28;51145;-71
2022/06/18 00:06:54;;;;;;;;;14.67;14.00;;;;;-147.17;100.00;-11702.25;5018209;28;51235;-71
2022/06/18 00:09:26;;;;;;;;;15.33;14.33;;;;;-147.17;100.00;-11702.25;5010175;28;52938;-71
2022/06/18 00:14:37;;;;;;;;;13.00;12.67;;;;;-147.17;100.00;-12198.19;5019942;28;51108;-70
2022/06/18 00:17:17;;;;;;;;;15.67;15.00;;;;;-147.17;100.00;-11702.25;5021166;28;51237;-71
2022/06/18 00:19:43;;;;;;;;;12.33;12.33;;;;;-147.17;100.00;-12198.19;5014720;28;52247;-70
2022/06/18 00:22:14;;;;;;;;;15.00;14.33;;;;;-147.17;100.00;-12198.19;5021829;28;51224;-72
2022/06/18 00:24:40;;;;;;;;;14.33;13.33;;;;;-147.17;100.00;-12198.19;5024582;28;51327;-69
2022/06/18 00:27:08;;;;;;;;;11.00;11.00;;;;;-147.17;100.00;-13189.88;5015732;28;51236;-70
2022/06/18 00:29:34;;;;;;;;;11.67;11.00;;;;;-147.17;100.00;-12446.13;5023934;28;52131;-70
2022/06/18 00:31:59;;;;;;;;;12.33;12.33;;;;;-147.17;100.00;-12694.06;5027263;28;51025;-70
2022/06/18 00:34:24;;;;;;;;;13.67;13.00;;;;;-147.17;100.00;-12694.06;5027391;28;51392;-69
2022/06/18 00:36:50;;;;;;;;;18.00;17.75;;;;;-147.17;100.00;-12941.97;5002218;28;51431;-70
2022/06/18 00:39:17;;;;;;;;;12.00;12.00;;;;;-147.17;100.00;-12941.97;5023035;28;53094;-71
2022/06/18 00:41:45;;;;;;;;;13.00;13.00;;;;;-147.17;100.00;-13437.75;5023431;28;51273;-73
2022/06/18 00:44:21;;;;;;;;;13.00;12.33;;;;;-147.17;100.00;-13189.88;5022546;28;51139;-72
2022/06/18 00:47:16;;;;;;;;;11.67;11.67;;;;;-147.17;100.00;-13437.75;5023522;28;51187;-71
2022/06/18 00:49:56;;;;;;;;;13.67;12.00;;;;;-147.17;100.00;-13933.50;5027671;28;52951;-72
2022/06/18 00:52:47;;;;;;;;;11.67;11.67;;;;;-147.17;100.00;-14676.94;5028017;28;51171;-71
2022/06/18 00:55:24;;;;;;;;;12.00;12.00;;;;;-147.17;100.00;-14429.16;5028477;28;51171;-71
2022/06/18 00:58:08;;;;;;;;;14.33;13.67;;;;;-147.17;100.00;-14429.16;5023524;28;51418;-69
2022/06/18 01:00:42;;;;;;;;;10.00;10.00;;;;;-147.17;100.00;-14924.75;5029378;28;51382;-70
2022/06/18 01:03:30;;;;;;;;;10.00;10.00;;;;;-147.17;100.00;-15172.50;5027534;28;51380;-71
2022/06/18 01:05:59;;;;;;;;;11.00;11.00;;;;;-147.17;100.00;-14924.75;5008370;28;51346;-71
2022/06/18 01:08:28;;;;;;;;;16.00;15.67;;;;;-147.17;100.00;-14676.94;5028812;28;51058;-71
2022/06/18 01:11:00;;;;;;;;;11.67;11.00;;;;;-147.17;100.00;-14676.94;5023515;28;53572;-71
2022/06/18 01:13:32;;;;;;;;;10.33;10.33;;;;;-147.17;100.00;-14676.94;5016316;28;50968;-72
2022/06/18 01:15:58;;;;;;;;;12.00;11.00;;;;;-147.17;100.00;-14676.94;5002695;28;50986;-70
2022/06/18 01:18:24;;;;;;;;;11.33;11.33;;;;;-147.17;100.00;-15172.50;5011204;28;51219;-72
2022/06/18 01:21:04;;;;;;;;;13.00;12.00;;;;;-147.17;100.00;-15172.50;5020219;28;52058;-71
2022/06/18 01:23:39;;;;;;;;;11.00;11.00;;;;;-147.17;100.00;-14924.75;5025291;28;51236;-73
2022/06/18 01:26:06;;;;;;;;;12.67;11.33;;;;;-147.17;100.00;-15420.25;5027332;28;51316;-71
2022/06/18 01:28:31;;;;;;;;;11.67;11.33;;;;;-147.17;100.00;-15668.00;5012763;28;51337;-72
2022/06/18 01:30:57;;;;;;;;;12.67;12.33;;;;;-147.17;100.00;-15668.00;5026273;28;51090;-70
2022/06/18 01:33:22;;;;;;;;;12.00;11.00;;;;;-147.17;100.00;-15915.72;5018260;28;51055;-72
2022/06/18 01:35:51;;;;;;;;;11.00;11.00;;;;;-147.17;100.00;-15917.19;5028345;28;52680;-70
2022/06/18 01:38:17;;;;;;;;;12.67;12.67;;;;;-147.17;100.00;-15917.19;5019872;28;51278;-72
2022/06/18 01:40:57;;;;;;;;;12.67;12.00;;;;;-147.17;100.00;-15917.19;5012659;28;52046;-71
2022/06/18 01:43:25;;;;;;;;;12.00;12.00;;;;;-147.17;100.00;-15917.19;5017600;28;51365;-71
2022/06/18 01:46:00;;;;;;;;;12.00;12.00;;;;;-147.17;100.00;-15917.19;5013431;28;51116;-71
2022/06/18 01:48:36;;;;;;;;;12.67;12.67;;;;;-147.17;100.00;-15917.19;5029263;28;51370;-71
2022/06/18 01:51:12;;;;;;;;;13.00;12.67;;;;;-147.17;100.00;-15917.19;5015029;28;52192;-71
2022/06/18 01:53:45;;;;;;;;;13.67;12.67;;;;;-147.17;100.00;-15917.19;5023306;28;51086;-72
2022/06/18 01:56:17;;;;;;;;;18.25;18.25;;;;;-147.17;100.00;-15917.19;5020442;28;51297;-72
2022/06/18 01:58:51;;;;;;;;;14.67;14.00;;;;;-147.17;100.00;-15917.19;5022028;28;51337;-73
2022/06/18 02:01:30;;;;;;;;;16.33;15.67;;;;;-147.17;100.00;-15917.19;5021120;28;52159;-72
2022/06/18 02:03:59;;;;;;;;;11.33;11.33;;;;;-147.17;100.00;-15917.19;5023846;28;51150;-72
2022/06/18 02:06:27;;;;;;;;;13.33;13.00;;;;;-147.17;100.00;-15917.19;5011263;28;50955;-72
2022/06/18 02:08:52;;;;;;;;;14.00;14.00;;;;;-147.17;100.00;-15917.19;4997901;28;51396;-73
2022/06/18 02:11:19;;;;;;;;;15.00;14.00;;;;;-147.17;100.00;-15917.19;5026042;28;51631;-71
2022/06/18 02:13:50;;;;;;;;;11.33;11.33;;;;;-147.17;100.00;-15917.19;5028629;28;51446;-72
2022/06/18 02:16:21;;;;;;;;;12.00;11.33;;;;;-147.17;100.00;-15917.19;5029235;28;51104;-70
2022/06/18 02:18:48;;;;;;;;;15.33;13.67;;;;;-147.17;100.00;-15917.19;5014310;28;51413;-72
2022/06/18 02:21:20;;;;;;;;;14.00;13.67;;;;;-147.17;100.00;-15917.19;5022533;28;51049;-71
2022/06/18 02:23:45;;;;;;;;;14.00;14.00;;;;;-147.17;100.00;-15917.19;5015351;28;51100;-72
2022/06/18 02:26:11;;;;;;;;;13.00;13.00;;;;;-147.17;100.00;-15917.19;5016938;28;51103;-71
2022/06/18 02:28:40;;;;;;;;;13.00;13.00;;;;;-147.17;100.00;-15917.19;5006810;28;51659;-71
2022/06/18 02:31:11;;;;;;;;;12.67;12.67;;;;;-147.17;100.00;-15917.19;5021918;28;51238;-71
2022/06/18 02:33:50;;;;;;;;;14.00;13.00;;;;;-147.17;100.00;-15917.19;5018278;28;51230;-73
2022/06/18 02:36:33;;;;;;;;;12.33;12.00;;;;;-147.17;100.00;-15917.19;5015882;28;51289;-72
2022/06/18 02:39:53;;;;;;;;;13.33;12.33;;;;;-147.17;100.00;-15917.19;5022399;28;51107;-72
2022/06/18 02:42:19;;;;;;;;;13.67;13.67;;;;;-147.17;100.00;-15917.19;4961864;28;52160;-72
2022/06/18 02:44:47;;;;;;;;;13.00;13.00;;;;;-147.17;100.00;-15917.19;4963296;28;51197;-71
2022/06/18 02:47:15;;;;;;;;;14.33;14.00;;;;;-147.17;100.00;-15917.19;4991081;28;51245;-72
2022/06/18 02:49:46;;;;;;;;;14.33;14.00;;;;;-147.17;100.00;-15917.19;5028419;28;51180;-72
2022/06/18 02:52:13;;;;;;;;;14.33;14.33;;;;;-147.17;100.00;-15917.19;5022780;28;51960;-72
2022/06/18 02:54:38;;;;;;;;;14.00;14.00;;;;;-147.17;100.00;-15917.19;4996802;28;51233;-72
2022/06/18 02:57:11;;;;;;;;;16.00;15.00;;;;;-147.17;100.00;-15917.19;5020421;28;51067;-71
2022/06/18 02:59:37;;;;;;;;;15.00;15.00;;;;;-147.17;100.00;-15917.19;5025999;28;51159;-71
2022/06/18 03:02:02;;;;;;;;;14.33;14.33;;;;;-147.17;100.00;-15917.19;5021802;28;51445;-72
2022/06/18 03:04:28;;;;;;;;;16.33;16.33;;;;;-147.17;100.00;-15917.19;4997668;28;51346;-71
2022/06/18 03:06:53;;;;;;;;;16.00;15.00;;;;;-147.17;100.00;-15917.19;5015653;28;51106;-71
2022/06/18 03:09:19;;;;;;;;;16.33;15.67;;;;;-147.17;100.00;-15917.19;5018052;28;51081;-71
2022/06/18 03:14:28;;;;;;;;;15.00;15.00;;;;;-147.17;100.00;-15917.19;5017482;28;51169;-72
2022/06/18 03:16:53;;;;;;;;;15.33;15.33;;;;;-147.17;100.00;-15917.19;5016317;28;50964;-72
2022/06/18 03:19:29;;;;;;;;;12.00;12.00;;;;;-147.17;100.00;-15917.19;5023049;28;51224;-71
2022/06/18 03:22:01;;;;;;;;;14.00;14.00;;;;;-147.17;100.00;-15917.19;5016528;28;51173;-71
2022/06/18 03:24:27;;;;;;;;;15.00;14.00;;;;;-147.17;100.00;-15917.19;4990691;28;51246;-72
2022/06/18 03:26:53;;;;;;;;;15.33;14.67;;;;;-147.17;100.00;-15917.19;5024731;28;51218;-72
2022/06/18 03:29:19;;;;;;;;;15.00;15.00;;;;;-147.17;100.00;-15917.19;5028058;28;52653;-71
2022/06/18 03:31:44;;;;;;;;;17.00;16.00;;;;;-147.17;100.00;-15917.19;5027228;28;52286;-72
2022/06/18 03:34:09;;;;;;;;;16.33;16.33;;;;;-147.17;100.00;-15917.19;5020392;28;51034;-71
2022/06/18 03:36:35;;;;;;;;;15.00;14.67;;;;;-147.17;100.00;-15917.19;5023472;28;51276;-71
2022/06/18 03:39:01;;;;;;;;;15.67;15.67;;;;;-147.17;100.00;-15917.19;5021272;28;51339;-72
2022/06/18 03:41:26;;;;;;;;;14.67;14.67;;;;;-147.17;100.00;-15917.19;5018373;28;51232;-72
2022/06/18 03:43:54;;;;;;;;;14.00;14.00;;;;;-147.17;100.00;-15917.19;5018399;28;51095;-71
2022/06/18 03:46:19;;;;;;;;;17.00;17.00;;;;;-147.17;100.00;-15917.19;5027937;28;51085;-72
2022/06/18 03:49:02;;;;;;;;;16.00;16.00;;;;;-147.17;100.00;-15917.19;5018485;28;51039;-70
2022/06/18 03:51:28;;;;;;;;;15.33;14.67;;;;;-147.17;100.00;-15917.19;5012166;28;51976;-72
2022/06/18 03:53:54;;;;;;;;;17.67;16.33;;;;;-147.17;100.00;-15917.19;5024174;28;51559;-72
2022/06/18 03:56:23;;;;;;;;;15.67;15.33;;;;;-147.17;100.00;-15917.19;5020932;28;51049;-71
2022/06/18 03:58:49;;;;;;;;;12.33;12.33;;;;;-147.17;100.00;-15917.19;5013358;28;51282;-70
2022/06/18 04:01:19;;;;;;;;;16.00;16.00;;;;;-147.17;100.00;-15917.19;5027123;28;52256;-70
2022/06/18 04:03:44;;;;;;;;;14.00;14.00;;;;;-147.17;100.00;-15917.19;5031208;28;51181;-71
2022/06/18 04:06:10;;;;;;;;;12.33;12.33;;;;;-147.17;100.00;-15917.19;5027481;28;51050;-72
2022/06/18 04:08:36;;;;;;;;;15.75;14.25;;;;;-147.17;100.00;-15917.19;5022182;28;51412;-71
2022/06/18 04:11:01;;;;;;;;;18.00;16.67;;;;;-147.17;100.00;-15917.19;5019438;28;51933;-71
2022/06/18 04:13:29;;;;;;;;;13.00;13.00;;;;;-147.17;100.00;-15917.19;5012993;28;51251;-72
2022/06/18 04:15:55;;;;;;;;;13.67;13.67;;;;;-147.17;100.00;-15917.19;5017068;28;51464;-72
2022/06/18 04:18:21;;;;;;;;;14.00;14.00;;;;;-147.17;100.00;-15917.19;5016082;28;52783;-73
2022/06/18 04:20:46;;;;;;;;;12.67;12.67;;;;;-147.17;100.00;-15917.19;5023572;28;51308;-72
2022/06/18 04:23:15;;;;;;;;;15.00;14.25;;;;;-147.17;100.00;-15917.19;5008838;28;51354;-71
2022/06/18 04:25:40;;;;;;;;;15.33;14.00;;;;;-147.17;100.00;-15917.19;5011532;28;51116;-71
2022/06/18 04:28:06;;;;;;;;;13.33;13.33;;;;;-147.17;100.00;-15917.19;5024760;28;51071;-74
2022/06/18 04:30:33;;;;;;;;;15.33;15.33;;;;;-147.17;100.00;-15917.19;5022828;28;51098;-73
2022/06/18 04:32:59;;;;;;;;;15.67;15.67;;;;;-147.17;100.00;-15917.19;5021405;28;53752;-72
2022/06/18 04:35:25;;;;;;;;;15.00;14.00;;;;;-147.17;100.00;-15917.19;5029699;28;50961;-72
2022/06/18 04:37:50;;;;;;;;;16.33;16.33;;;;;-147.17;100.00;-15917.19;5019147;28;51228;-73
2022/06/18 04:40:21;;;;;;;;;15.33;14.67;;;;;-147.17;100.00;-15917.19;5011203;28;52121;-72
2022/06/18 04:42:47;;;;;;;;;15.67;15.33;;;;;-147.17;100.00;-15917.19;5015914;28;51574;-72
2022/06/18 04:45:13;;;;;;;;;14.00;14.00;;;;;-147.17;100.00;-15917.19;5023229;28;51223;-72
2022/06/18 04:47:40;;;;;;;;;17.00;16.00;;;;;-147.17;100.00;-15917.19;5018677;28;51230;-72
2022/06/18 04:50:17;;;;;;;;;15.67;15.67;;;;;-147.17;100.00;-15917.19;5026484;28;51954;-72
2022/06/18 04:52:42;;;;;;;;;15.00;14.67;;;;;-147.17;100.00;-15917.19;5021781;28;51173;-72
2022/06/18 04:55:08;;;;;;;;;15.67;15.00;;;;;-147.17;100.00;-15917.19;5021216;28;51378;-72
2022/06/18 04:57:33;;;;;;;;;15.75;15.75;;;;;-147.17;100.00;-15917.19;4995851;28;51537;-72
2022/06/18 04:59:59;;;;;;;;;14.50;14.50;;;;;-147.17;100.00;-15917.19;5013277;28;52243;-72
2022/06/18 05:02:27;;;;;;;;;12.67;12.67;;;;;-147.17;100.00;-15917.19;5005036;28;51536;-72
2022/06/18 05:04:53;;;;;;;;;16.00;16.00;;;;;-147.17;100.00;-15917.19;5027255;28;51678;-71
2022/06/18 05:07:19;;;;;;;;;13.25;13.25;;;;;-147.17;100.00;-15917.19;5028150;28;50996;-71
2022/06/18 05:09:44;;;;;;;;;15.00;14.75;;;;;-147.17;100.00;-15917.19;5021324;28;51132;-71
2022/06/18 05:12:10;;;;;;;;;14.00;14.00;;;;;-147.17;100.00;-15917.19;5024954;28;51213;-71
2022/06/18 05:14:35;;;;;;;;;15.00;15.00;;;;;-147.17;100.00;-15917.19;5020496;28;51012;-72
2022/06/18 05:17:02;;;;;;;;;14.00;14.00;;;;;-147.17;100.00;-15917.19;5016874;28;51205;-72
2022/06/18 05:19:32;;;;;;;;;14.00;13.67;;;;;-147.17;100.00;-15917.19;5019622;28;52814;-72
2022/06/18 05:21:58;;;;;;;;;13.00;13.00;;;;;-147.17;100.00;-15917.19;5022530;28;51069;-72
2022/06/18 05:24:24;;;;;;;;;14.33;14.33;;;;;-147.17;100.00;-15917.19;5023814;28;51306;-72
2022/06/18 05:26:53;;;;;;;;;12.67;12.67;;;;;-147.17;100.00;-15917.19;5024568;28;51253;-72
2022/06/18 05:29:19;;;;;;;;;13.67;13.00;;;;;-147.17;100.00;-15917.19;5021554;28;51217;-72
2022/06/18 05:31:44;;;;;;;;;15.33;15.00;;;;;-147.17;100.00;-15917.19;5025452;28;51771;-72
2022/06/18 05:34:10;;;;;;;;;16.00;15.33;;;;;-147.17;100.00;-15917.19;5024696;28;51303;-71
2022/06/18 05:36:36;;;;;;;;;14.67;14.00;;;;;-147.17;100.00;-15917.19;5019076;28;51313;-72
2022/06/18 05:39:03;;;;;;;;;16.33;16.00;;;;;-147.17;100.00;-15917.19;5021867;28;51370;-72
2022/06/18 05:41:30;;;;;;;;;17.00;15.00;;;;;-147.17;100.00;-15917.19;5029627;28;51232;-71
2022/06/18 05:43:56;;;;;;;;;12.67;12.67;;;;;-147.17;100.00;-15917.19;5020852;28;51395;-71
2022/06/18 05:46:21;;;;;;;;;12.33;12.33;;;;;-147.17;100.00;-15917.19;5018193;28;51308;-71
2022/06/18 05:48:46;;;;;;;;;14.00;14.00;;;;;-147.17;100.00;-15917.19;5032127;28;51951;-71
2022/06/18 05:51:12;;;;;;;;;14.00;14.00;;;;;-147.17;100.00;-15917.19;5029726;28;51044;-72
2022/06/18 05:53:37;;;;;;;;;14.00;13.00;;;;;-147.17;100.00;-15917.19;5027721;28;51357;-72
2022/06/18 05:56:03;;;;;;;;;16.00;15.33;;;;;-147.17;100.00;-15917.19;5030750;28;51440;-72
2022/06/18 05:58:28;;;;;;;;;14.67;14.67;;;;;-147.17;100.00;-15917.19;5022058;28;52742;-72
2022/06/18 06:00:53;;;;;;;;;18.00;16.00;;;;;-147.17;100.00;-15917.19;5025087;28;51159;-72
2022/06/18 06:03:19;;;;;;;;;17.67;17.00;;;;;-147.17;100.00;-15917.19;5028165;28;51833;-72
2022/06/18 06:05:44;;;;;;;;;17.00;16.33;;;;;-147.17;100.00;-15917.19;5031770;28;51087;-72
2022/06/18 06:08:12;;;;;;;;;14.67;14.33;;;;;-147.17;100.00;-15917.19;5027060;28;52397;-72
2022/06/18 06:13:22;;;;;;;;;15.00;15.00;;;;;-147.17;100.00;-15917.19;5024615;28;51174;-72
2022/06/18 06:15:49;;;;;;;;;15.00;15.00;;;;;-147.17;100.00;-15917.19;5015557;28;51406;-71
2022/06/18 06:18:18;;;;;;;;;13.67;13.00;;;;;-147.17;100.00;-15917.19;4999919;28;53367;-72
2022/06/18 06:20:46;;;;;;;;;12.00;12.00;;;;;-147.17;100.00;-15917.19;5026377;28;51871;-73
2022/06/18 06:23:11;;;;;;;;;12.67;12.67;;;;;-147.17;100.00;-15917.19;5020637;28;51032;-70
2022/06/18 06:25:39;;;;;;;;;12.33;11.67;;;;;-147.17;100.00;-15917.19;5024285;28;51122;-71
2022/06/18 06:28:05;;;;;;;;;15.00;14.33;;;;;-147.17;100.00;-15917.19;5027316;28;52530;-71
2022/06/18 06:30:30;;;;;;;;;13.00;12.00;;;;;-147.17;100.00;-15917.19;5028826;28;51290;-71
2022/06/18 06:32:56;;;;;;;;;15.33;14.33;;;;;-147.17;100.00;-15917.19;5030068;28;51186;-71
2022/06/18 06:35:21;;;;;;;;;14.00;14.00;;;;;-147.17;100.00;-15917.19;5027776;28;51821;-72
2022/06/18 06:37:47;;;;;;;;;15.67;15.00;;;;;-147.17;100.00;-15917.19;5023496;28;51770;-71
2022/06/18 06:40:13;;;;;;;;;13.67;13.67;;;;;-147.17;100.00;-15917.19;5023749;28;51116;-72
2022/06/18 06:42:48;;;;;;;;;14.33;13.33;;;;;-147.17;100.00;-15668.00;5024656;28;51151;-72
2022/06/18 06:45:17;;;;;;;;;14.33;14.33;;;;;-147.17;100.00;-15420.25;5023785;28;51290;-73
2022/06/18 06:47:44;;;;;;;;;13.00;13.00;;;;;-147.17;100.00;-13933.50;5026997;28;52977;-72
2022/06/18 06:50:10;;;;;;;;;14.50;14.50;;;;;-147.17;100.00;-14429.16;5028256;28;51913;-71
2022/06/18 06:52:36;;;;;;;;;15.00;15.00;;;;;-147.17;100.00;-13189.88;5027079;28;51222;-71
2022/06/18 06:57:45;;;;;;;;;11.00;11.00;;;;;-147.17;100.00;-11454.25;5025219;28;53139;-71
2022/06/18 07:00:12;;;;;;;;;14.00;14.00;;;;;-147.17;100.00;-10710.16;5016607;28;51054;-71
2022/06/18 07:02:38;;;;;;;;;13.67;13.00;;;;;-147.17;100.00;-8973.38;5022875;28;51265;-71
2022/06/18 07:05:04;;;;;;;;;14.00;13.00;;;;;-147.17;100.00;-6490.94;5025311;28;51447;-71
2022/06/18 07:07:30;;;;;;;;;14.33;14.33;;;;;-147.17;100.00;-6739.25;5006642;28;51565;-70
2022/06/18 07:09:56;;;;;;;;;15.00;14.00;;;;;-147.17;100.00;-6490.94;5022673;28;51012;-69
2022/06/18 07:12:21;;;;;;;;;15.00;13.67;;;;;-147.17;100.00;-4752.25;5023581;28;51297;-63
2022/06/18 07:14:48;;;;;;;;;16.33;16.00;;;;;-147.17;100.00;-15917.19;5023176;28;51429;-62
2022/06/18 07:17:17;;;;;;;;;13.00;12.33;;;;;-147.17;100.00;-15917.19;5004792;28;53624;-61
2022/06/18 07:19:42;;;;;;;;;13.25;12.25;;;;;-147.17;100.00;-15917.19;5026324;28;51069;-68
2022/06/18 07:22:10;;;;;;;;;6.50;6.50;;;;;-147.17;100.00;-15917.19;5023527;28;51442;-72
2022/06/18 07:24:36;;;;;;;;;15.50;15.00;;;;;-147.17;100.00;-15917.19;5025003;28;51173;-70
2022/06/18 07:27:02;;;;;;;;;12.75;12.50;;;;;-147.17;100.00;-15917.19;5017386;28;51910;-59
2022/06/18 07:29:27;;;;;;;;;16.33;16.00;;;;;-147.17;100.00;-15917.19;5005386;28;51145;-59
2022/06/18 07:31:53;;;;;;;;;16.00;16.00;;;;;-147.17;100.00;-15917.19;5026942;28;51010;-59
2022/06/18 07:34:18;;;;;;;;;15.75;15.50;;;;;-147.17;100.00;-15917.19;5024878;28;51100;-60
2022/06/18 07:36:44;;;;;;;;;14.00;14.00;;;;;-147.17;100.00;-15917.19;5020936;28;51024;-60
2022/06/18 07:39:09;;;;;;;;;13.75;13.50;;;;;-147.17;100.00;-15917.19;5025911;28;51140;-59
2022/06/18 07:41:39;;;;;;;;;14.33;13.33;;;;;-147.17;100.00;-15917.19;5016888;28;51208;-60
2022/06/18 07:44:05;;;;;;;;;16.25;16.25;;;;;-147.17;100.00;-15917.19;5016594;28;51259;-59
2022/06/18 07:46:30;;;;;;;;;13.75;13.75;;;;;-147.17;100.00;-15917.19;5022185;28;52256;-60
2022/06/18 07:48:56;;;;;;;;;13.25;13.00;;;;;-147.17;100.00;-15917.19;5014204;28;51304;-60
2022/06/18 07:51:23;;;;;;;;;13.00;13.00;;;;;-147.17;100.00;-15917.19;5027218;28;51442;-59
2022/06/18 07:53:48;;;;;;;;;14.25;14.25;;;;;-147.17;100.00;-15917.19;5015636;28;53699;-59
2022/06/18 07:56:15;;;;;;;;;17.25;17.00;;;;;-147.17;100.00;-15917.19;5019685;28;51837;-58
2022/06/18 07:58:41;;;;;;;;;13.00;13.00;;;;;-147.17;100.00;-15917.19;5024037;28;51343;-59
2022/06/18 08:01:07;;;;;;;;;15.00;15.00;;;;;-147.17;100.00;-15917.19;5023858;28;51083;-59
2022/06/18 08:03:32;;;;;;;;;15.00;15.00;;;;;-147.17;100.00;-15917.19;5016926;28;51585;-59
2022/06/18 08:05:58;;;;;;;;;15.75;15.00;;;;;-147.17;100.00;-15917.19;5026705;28;53026;-58
2022/06/18 08:08:24;;;;;;;;;15.25;14.75;;;;;-147.17;100.00;-15917.19;5023052;28;51183;-58
2022/06/18 08:10:52;;;;;;;;;17.00;16.00;;;;;-147.17;100.00;-15917.19;5023809;28;51387;-59
2022/06/18 08:13:18;;;;;;;;;14.00;14.00;;;;;-147.17;100.00;-15917.19;5022890;28;51195;-59
2022/06/18 08:15:44;;;;;;;;;14.75;14.75;;;;;-147.17;100.00;-15917.19;5025931;28;51210;-59
2022/06/18 08:18:09;;;;;;;;;12.50;12.50;;;;;-147.17;100.00;-15917.19;5023165;28;51090;-59
2022/06/18 08:20:36;;;;;;;;;14.75;14.50;;;;;-147.17;100.00;-15917.19;5019119;28;51022;-60
2022/06/18 08:23:02;;;;;;;;;16.75;14.75;;;;;-147.17;100.00;-15917.19;5023788;28;51266;-59
2022/06/18 08:25:31;;;;;;;;;16.25;15.50;;;;;-147.17;100.00;-15917.19;5026376;28;53098;-60
2022/06/18 08:28:01;;;;;;;;;17.00;17.00;;;;;-147.17;100.00;-15917.19;5025642;28;51157;-59
2022/06/18 08:30:26;;;;;;;;;14.00;14.00;;;;;-147.17;100.00;-15917.19;5024031;28;51347;-60
2022/06/18 08:32:52;;;;;;;;;11.25;11.25;;;;;-147.17;100.00;-15917.19;5023296;28;51338;-60
2022/06/18 08:35:17;;;;;;;;;14.00;13.00;;;;;-147.17;100.00;-15917.19;5019623;28;51230;-60
2022/06/18 08:37:43;;;;;;;;;13.50;13.50;;;;;-147.17;100.00;-15917.19;5018709;28;51120;-60
2022/06/18 08:40:34;;;;;;;;;12.50;12.50;;;;;-147.17;100.00;-15917.19;5017931;28;52297;-60
2022/06/18 08:43:33;;;;;;;;;15.50;15.50;;;;;-147.17;100.00;-15917.19;5021914;28;51980;-61
2022/06/18 08:46:06;;;;;;;;;16.00;15.50;;;;;-147.17;100.00;-15917.19;5008043;28;54235;-60
2022/06/18 08:48:56;;;;;;;;;14.50;14.50;;;;;-147.17;100.00;-15917.19;5021379;28;51056;-59
2022/06/18 08:51:37;;;;;;;;;14.50;14.50;;;;;-147.17;100.00;-15917.19;5020261;28;51410;-60
2022/06/18 08:54:13;;;;;;;;;14.00;14.00;;;;;-147.17;100.00;-15917.19;5017544;28;51159;-64
2022/06/18 08:56:52;;;;;;;;;21.00;21.00;;;;;-147.17;100.00;-15917.19;5022303;28;51325;-65
2022/06/18 08:59:31;;;;;;;;;23.75;21.75;;;;;-147.17;100.00;-15917.19;5016427;28;51162;-67
2022/06/18 09:02:14;;;;;;;;;14.75;14.75;;;;;-147.17;100.00;-15917.19;5019992;28;51412;-66
2022/06/18 09:05:03;;;;;;;;;17.00;17.00;;;;;-147.17;100.00;-15917.19;5024318;28;51031;-66
2022/06/18 09:07:41;;;;;;;;;18.75;18.25;;;;;-147.17;100.00;-15917.19;5022231;28;52050;-66
2022/06/18 09:10:19;;;;;;;;;12.50;12.00;;;;;-147.17;100.00;-15917.19;5025797;28;51104;-69
2022/06/18 09:12:55;;;;;;;;;8.50;8.50;;;;;-147.17;100.00;-15917.19;5029242;28;50984;-68
2022/06/18 09:15:28;;;;;;;;;15.75;15.00;;;;;-147.17;100.00;-15917.19;5029107;28;51151;-67
2022/06/18 09:18:08;;;;;;;;;16.25;15.50;;;;;-147.17;100.00;-15917.19;5028178;28;52153;-67
2022/06/18 09:20:53;;;;;;;;;18.00;17.50;;;;;-147.17;100.00;-15917.19;5021476;28;51254;-67
2022/06/18 09:23:35;;;;;;;;;23.25;22.25;;;;;-147.17;100.00;-15917.19;5019132;28;51320;-67
2022/06/18 09:26:03;;;;;;;;;15.25;15.25;;;;;-147.17;100.00;-15917.19;5006886;28;51352;-67
2022/06/18 09:28:37;;;;;;;;;17.00;15.75;;;;;-147.17;100.00;-15917.19;5020396;28;51235;-66
2022/06/18 09:31:19;;;;;;;;;16.50;16.50;;;;;-147.17;100.00;-15917.19;5019230;28;51104;-66
2022/06/18 09:34:13;;;;;;;;;16.75;16.75;;;;;-147.17;100.00;-15917.19;5024009;28;51079;-66
2022/06/18 09:36:45;;;;;;;;;15.50;15.00;;;;;-147.17;100.00;-15917.19;5003917;28;51290;-66
2022/06/18 09:39:25;;;;;;;;;13.75;13.75;;;;;-147.17;100.00;-15917.19;5020337;28;52119;-66
2022/06/18 09:42:08;;;;;;;;;16.75;16.50;;;;;-147.17;100.00;-15917.19;5017948;28;51101;-70
2022/06/18 09:44:42;;;;;;;;;19.50;18.00;;;;;-147.17;100.00;-15917.19;5015704;28;50984;-72
2022/06/18 09:47:24;;;;;;;;;17.50;17.50;;;;;-147.17;100.00;-15917.19;4997261;28;51347;-70
2022/06/18 09:49:50;;;;;;;;;16.25;16.25;;;;;-147.17;100.00;-15917.19;5000587;28;53801;-69
2022/06/18 09:52:31;;;;;;;;;14.00;14.00;;;;;-147.17;100.00;-15917.19;4994097;28;51225;-69
2022/06/18 09:55:02;;;;;;;;;13.75;13.75;;;;;-147.17;100.00;-15917.19;5020404;28;50945;-70
2022/06/18 09:57:34;;;;;;;;;12.50;12.50;;;;;-147.17;100.00;-15917.19;5014195;28;51216;-70
2022/06/18 10:00:21;;;;;;;;;12.33;12.33;;;;;-147.17;100.00;-15917.19;5018062;28;51877;-69
2022/06/18 10:02:58;;;;;;;;;11.75;11.50;;;;;-147.17;100.00;-15917.19;5016922;28;51293;-69
2022/06/18 10:08:19;;;;;;;;;18.25;16.25;;;;;-147.17;100.00;-15917.19;5018438;28;51088;-67
2022/06/18 10:10:51;;;;;;;;;13.00;13.00;;;;;-147.17;100.00;-15917.19;5019886;28;51178;-69
2022/06/18 10:13:25;;;;;;;;;10.75;10.50;;;;;-147.17;100.00;-15917.19;5019836;28;51134;-69
2022/06/18 10:15:57;;;;;;;;;16.25;15.50;;;;;-147.17;100.00;-15917.19;5021688;28;52304;-70
2022/06/18 10:18:39;;;;;;;;;13.50;13.25;;;;;-147.17;100.00;-15917.19;5021009;28;50996;-70
2022/06/18 10:21:27;;;;;;;;;13.75;13.75;;;;;-147.17;100.00;-15917.19;4997751;28;52162;-69
2022/06/18 10:24:32;;;;;;;;;11.00;9.00;;;;;-147.17;100.00;-15917.19;5016135;28;51216;-70
2022/06/18 10:27:27;;;;;;;;;17.75;17.25;;;;;-147.17;100.00;-15917.19;4996150;28;51127;-74
2022/06/18 10:30:01;;;;;;;;;12.00;11.00;;;;;-147.17;100.00;-10958.19;5021881;28;51277;-76
2022/06/18 10:32:44;;;;;;;;;12.00;11.25;;;;;-147.17;100.00;-7235.84;5016528;28;52616;-72
2022/06/18 10:35:25;;;;;;;;;11.75;11.25;;;;;-147.17;100.00;-15917.19;5013152;28;51347;-75
2022/06/18 10:38:07;;;;;;;;;13.00;13.00;;;;;-147.17;100.00;-15917.19;5013182;28;51234;-73
2022/06/18 10:40:41;;;;;;;;;13.25;12.50;;;;;-147.17;100.00;-15917.19;5035424;28;51430;-73
2022/06/18 10:43:13;;;;;;;;;14.00;12.33;;;;;-147.17;100.00;-15917.19;5015622;28;52495;-74
2022/06/18 10:45:55;;;;;;;;;9.33;9.00;;;;;-147.17;100.00;-15917.19;5011403;28;51176;-73
2022/06/18 10:48:24;;;;;;;;;16.50;15.75;;;;;-147.17;100.00;-15917.19;5016946;28;51201;-72
2022/06/18 10:50:53;;;;;;;;;14.00;14.00;;;;;-147.17;100.00;-15917.19;5019715;28;51390;-74
2022/06/18 10:53:26;;;;;;;;;14.25;14.00;;;;;-147.17;100.00;-15917.19;5003118;28;53064;-73
2022/06/18 10:56:12;;;;;;;;;14.50;14.00;;;;;-147.17;100.00;-15917.19;5017996;28;51618;-72
2022/06/18 10:58:47;;;;;;;;;14.00;14.00;;;;;-147.17;100.00;-15917.19;5010902;28;51156;-73
2022/06/18 11:01:14;;;;;;;;;16.50;15.50;;;;;-147.17;100.00;-15917.19;5029471;28;51040;-73
2022/06/18 11:03:40;;;;;;;;;13.25;13.25;;;;;-147.17;100.00;-15917.19;5035602;28;51303;-73
2022/06/18 11:06:12;;;;;;;;;14.75;14.50;;;;;-147.17;100.00;-15917.19;5029068;28;51108;-72
2022/06/18 11:08:38;;;;;;;;;9.75;9.75;;;;;-147.17;100.00;-15917.19;5019445;28;51181;-73
2022/06/18 11:11:13;;;;;;;;;15.75;14.50;;;;;-147.17;100.00;-15917.19;5002342;28;51681;-72
2022/06/18 11:13:42;;;;;;;;;11.25;10.75;;;;;-147.17;100.00;-15917.19;5012261;28;52440;-71
2022/06/18 11:16:21;;;;;;;;;17.00;16.00;;;;;-147.17;100.00;-15917.19;5026270;28;51245;-72